sensor_id;sensor_type;location;lat;lon;timestamp;temperature;humidity
71237;DHT22;58984;51.960;5.582;2022-12-07T00:01:23;12.40;54.40
71237;DHT22;58984;51.960;5.582;2022-12-07T00:03:51;12.40;54.40
71237;DHT22;58984;51.960;5.582;2022-12-07T00:06:18;12.40;54.40
71237;DHT22;58984;51.960;5.582;2022-12-07T00:08:45;12.40;54.50
71237;DHT22;58984;51.960;5.582;2022-12-07T00:11:16;12.40;54.50
71237;DHT22;58984;51.960;5.582;2022-12-07T00:13:43;12.40;54.40
71237;DHT22;58984;51.960;5.582;2022-12-07T00:16:14;12.40;54.40
71237;DHT22;58984;51.960;5.582;2022-12-07T00:18:40;12.40;54.40
71237;DHT22;58984;51.960;5.582;2022-12-07T00:21:10;12.40;54.40
71237;DHT22;58984;51.960;5.582;2022-12-07T00:23:36;12.40;54.40
71237;DHT22;58984;51.960;5.582;2022-12-07T00:26:09;12.40;54.40
71237;DHT22;58984;51.960;5.582;2022-12-07T00:28:35;12.30;54.30
71237;DHT22;58984;51.960;5.582;2022-12-07T00:31:05;12.40;54.30
71237;DHT22;58984;51.960;5.582;2022-12-07T00:33:33;12.30;54.30
71237;DHT22;58984;51.960;5.582;2022-12-07T00:35:59;12.30;54.30
71237;DHT22;58984;51.960;5.582;2022-12-07T00:38:28;12.40;54.30
71237;DHT22;58984;51.960;5.582;2022-12-07T00:41:03;12.30;54.30
71237;DHT22;58984;51.960;5.582;2022-12-07T00:43:28;12.30;54.30
71237;DHT22;58984;51.960;5.582;2022-12-07T00:45:55;12.30;54.30
71237;DHT22;58984;51.960;5.582;2022-12-07T00:48:21;12.30;54.30
71237;DHT22;58984;51.960;5.582;2022-12-07T00:50:50;12.30;54.30
71237;DHT22;58984;51.960;5.582;2022-12-07T00:53:16;12.30;54.30
71237;DHT22;58984;51.960;5.582;2022-12-07T00:55:42;12.30;54.20
71237;DHT22;58984;51.960;5.582;2022-12-07T00:58:08;12.30;54.30
71237;DHT22;58984;51.960;5.582;2022-12-07T01:00:39;12.30;54.20
71237;DHT22;58984;51.960;5.582;2022-12-07T01:03:06;12.30;54.20
71237;DHT22;58984;51.960;5.582;2022-12-07T01:05:32;12.20;54.00
71237;DHT22;58984;51.960;5.582;2022-12-07T01:08:00;12.20;54.10
71237;DHT22;58984;51.960;5.582;2022-12-07T01:10:26;12.30;54.10
71237;DHT22;58984;51.960;5.582;2022-12-07T01:12:52;12.20;54.00
71237;DHT22;58984;51.960;5.582;2022-12-07T01:15:17;12.20;54.00
71237;DHT22;58984;51.960;5.582;2022-12-07T01:17:43;12.20;54.00
71237;DHT22;58984;51.960;5.582;2022-12-07T01:20:09;12.20;54.00
71237;DHT22;58984;51.960;5.582;2022-12-07T01:22:40;12.20;54.00
71237;DHT22;58984;51.960;5.582;2022-12-07T01:25:07;12.20;53.90
71237;DHT22;58984;51.960;5.582;2022-12-07T01:27:34;12.20;53.90
71237;DHT22;58984;51.960;5.582;2022-12-07T01:30:01;12.20;54.00
71237;DHT22;58984;51.960;5.582;2022-12-07T01:32:26;12.20;53.90
71237;DHT22;58984;51.960;5.582;2022-12-07T01:34:52;12.20;53.90
71237;DHT22;58984;51.960;5.582;2022-12-07T01:37:18;12.20;54.00
71237;DHT22;58984;51.960;5.582;2022-12-07T01:39:43;12.20;53.90
71237;DHT22;58984;51.960;5.582;2022-12-07T01:42:12;12.10;53.80
71237;DHT22;58984;51.960;5.582;2022-12-07T01:47:42;12.10;53.80
71237;DHT22;58984;51.960;5.582;2022-12-07T01:50:08;12.10;53.80
71237;DHT22;58984;51.960;5.582;2022-12-07T01:52:35;12.00;53.70
71237;DHT22;58984;51.960;5.582;2022-12-07T01:55:06;12.00;53.80
71237;DHT22;58984;51.960;5.582;2022-12-07T01:57:35;12.10;53.80
71237;DHT22;58984;51.960;5.582;2022-12-07T02:00:04;12.00;53.70
71237;DHT22;58984;51.960;5.582;2022-12-07T02:02:33;12.10;53.80
71237;DHT22;58984;51.960;5.582;2022-12-07T02:05:02;12.00;53.80
71237;DHT22;58984;51.960;5.582;2022-12-07T02:07:29;12.10;53.80
71237;DHT22;58984;51.960;5.582;2022-12-07T02:09:56;12.00;54.30
71237;DHT22;58984;51.960;5.582;2022-12-07T02:12:23;12.00;53.70
71237;DHT22;58984;51.960;5.582;2022-12-07T02:14:50;12.00;53.70
71237;DHT22;58984;51.960;5.582;2022-12-07T02:22:46;11.90;53.70
71237;DHT22;58984;51.960;5.582;2022-12-07T02:28:07;11.90;53.70
71237;DHT22;58984;51.960;5.582;2022-12-07T02:30:42;11.90;53.70
71237;DHT22;58984;51.960;5.582;2022-12-07T02:33:32;11.90;53.70
71237;DHT22;58984;51.960;5.582;2022-12-07T02:36:30;11.90;53.70
71237;DHT22;58984;51.960;5.582;2022-12-07T02:39:09;11.90;54.30
71237;DHT22;58984;51.960;5.582;2022-12-07T02:41:42;11.90;53.70
71237;DHT22;58984;51.960;5.582;2022-12-07T02:44:11;11.90;53.70
71237;DHT22;58984;51.960;5.582;2022-12-07T02:47:01;11.90;53.70
71237;DHT22;58984;51.960;5.582;2022-12-07T02:49:28;11.80;53.60
71237;DHT22;58984;51.960;5.582;2022-12-07T02:51:54;11.90;53.70
71237;DHT22;58984;51.960;5.582;2022-12-07T02:54:21;11.80;53.60
71237;DHT22;58984;51.960;5.582;2022-12-07T02:56:51;11.80;53.60
71237;DHT22;58984;51.960;5.582;2022-12-07T03:00:08;11.80;53.60
71237;DHT22;58984;51.960;5.582;2022-12-07T03:08:15;11.80;53.60
71237;DHT22;58984;51.960;5.582;2022-12-07T03:13:41;11.80;53.70
71237;DHT22;58984;51.960;5.582;2022-12-07T03:16:15;11.80;53.70
71237;DHT22;58984;51.960;5.582;2022-12-07T03:19:03;11.80;53.80
71237;DHT22;58984;51.960;5.582;2022-12-07T03:21:38;11.80;53.80
71237;DHT22;58984;51.960;5.582;2022-12-07T03:24:09;11.80;53.80
71237;DHT22;58984;51.960;5.582;2022-12-07T03:26:40;11.80;53.80
71237;DHT22;58984;51.960;5.582;2022-12-07T03:29:13;11.80;53.80
71237;DHT22;58984;51.960;5.582;2022-12-07T03:31:46;11.80;53.90
71237;DHT22;58984;51.960;5.582;2022-12-07T03:34:23;11.80;53.90
71237;DHT22;58984;51.960;5.582;2022-12-07T03:37:05;11.80;53.90
71237;DHT22;58984;51.960;5.582;2022-12-07T03:39:41;11.70;53.80
71237;DHT22;58984;51.960;5.582;2022-12-07T03:42:11;11.70;53.90
71237;DHT22;58984;51.960;5.582;2022-12-07T03:44:40;11.80;53.90
71237;DHT22;58984;51.960;5.582;2022-12-07T03:47:16;11.80;53.90
71237;DHT22;58984;51.960;5.582;2022-12-07T03:49:58;11.80;53.90
71237;DHT22;58984;51.960;5.582;2022-12-07T03:52:46;11.80;53.90
71237;DHT22;58984;51.960;5.582;2022-12-07T03:55:35;11.70;53.80
71237;DHT22;58984;51.960;5.582;2022-12-07T03:58:06;11.80;53.90
71237;DHT22;58984;51.960;5.582;2022-12-07T04:00:33;11.80;53.90
71237;DHT22;58984;51.960;5.582;2022-12-07T04:02:59;11.80;53.90
71237;DHT22;58984;51.960;5.582;2022-12-07T04:05:25;11.80;53.90
71237;DHT22;58984;51.960;5.582;2022-12-07T04:07:50;11.80;53.90
71237;DHT22;58984;51.960;5.582;2022-12-07T04:10:16;11.80;53.90
71237;DHT22;58984;51.960;5.582;2022-12-07T04:12:42;11.80;53.90
71237;DHT22;58984;51.960;5.582;2022-12-07T04:15:08;11.80;53.80
71237;DHT22;58984;51.960;5.582;2022-12-07T04:17:34;11.80;53.80
71237;DHT22;58984;51.960;5.582;2022-12-07T04:19:59;11.90;53.80
71237;DHT22;58984;51.960;5.582;2022-12-07T04:22:25;11.80;53.80
71237;DHT22;58984;51.960;5.582;2022-12-07T04:24:50;11.80;53.70
71237;DHT22;58984;51.960;5.582;2022-12-07T04:27:16;11.80;53.80
71237;DHT22;58984;51.960;5.582;2022-12-07T04:29:41;11.80;53.70
71237;DHT22;58984;51.960;5.582;2022-12-07T04:32:07;11.70;53.70
71237;DHT22;58984;51.960;5.582;2022-12-07T04:34:33;11.70;53.70
71237;DHT22;58984;51.960;5.582;2022-12-07T04:36:58;11.80;53.70
71237;DHT22;58984;51.960;5.582;2022-12-07T04:39:29;11.70;53.70
71237;DHT22;58984;51.960;5.582;2022-12-07T04:41:56;11.70;53.70
71237;DHT22;58984;51.960;5.582;2022-12-07T04:44:24;11.70;53.70
71237;DHT22;58984;51.960;5.582;2022-12-07T04:46:51;11.70;53.70
71237;DHT22;58984;51.960;5.582;2022-12-07T04:49:17;11.70;53.70
71237;DHT22;58984;51.960;5.582;2022-12-07T04:51:43;11.70;53.70
71237;DHT22;58984;51.960;5.582;2022-12-07T04:54:09;11.70;53.70
71237;DHT22;58984;51.960;5.582;2022-12-07T04:56:35;11.70;53.70
71237;DHT22;58984;51.960;5.582;2022-12-07T04:59:02;11.70;53.70
71237;DHT22;58984;51.960;5.582;2022-12-07T05:01:28;11.70;53.80
71237;DHT22;58984;51.960;5.582;2022-12-07T05:03:53;11.70;54.40
71237;DHT22;58984;51.960;5.582;2022-12-07T05:06:19;11.70;53.80
71237;DHT22;58984;51.960;5.582;2022-12-07T05:08:45;11.70;53.80
71237;DHT22;58984;51.960;5.582;2022-12-07T05:11:11;11.70;53.80
71237;DHT22;58984;51.960;5.582;2022-12-07T05:13:56;11.70;53.80
71237;DHT22;58984;51.960;5.582;2022-12-07T05:16:21;11.70;53.80
71237;DHT22;58984;51.960;5.582;2022-12-07T05:18:47;11.70;53.80
71237;DHT22;58984;51.960;5.582;2022-12-07T05:21:12;11.70;53.90
71237;DHT22;58984;51.960;5.582;2022-12-07T05:23:38;11.70;53.80
71237;DHT22;58984;51.960;5.582;2022-12-07T05:26:03;11.70;53.80
71237;DHT22;58984;51.960;5.582;2022-12-07T05:28:29;11.70;53.90
71237;DHT22;58984;51.960;5.582;2022-12-07T05:30:54;11.70;53.80
71237;DHT22;58984;51.960;5.582;2022-12-07T05:33:20;11.60;53.70
71237;DHT22;58984;51.960;5.582;2022-12-07T05:35:46;11.70;53.90
71237;DHT22;58984;51.960;5.582;2022-12-07T05:38:11;11.70;53.80
71237;DHT22;58984;51.960;5.582;2022-12-07T05:40:37;11.70;53.90
71237;DHT22;58984;51.960;5.582;2022-12-07T05:43:02;11.70;53.90
71237;DHT22;58984;51.960;5.582;2022-12-07T05:45:28;11.70;53.90
71237;DHT22;58984;51.960;5.582;2022-12-07T05:47:54;11.70;53.90
71237;DHT22;58984;51.960;5.582;2022-12-07T05:50:19;11.70;53.90
71237;DHT22;58984;51.960;5.582;2022-12-07T05:52:45;11.60;53.80
71237;DHT22;58984;51.960;5.582;2022-12-07T05:55:10;11.60;53.70
71237;DHT22;58984;51.960;5.582;2022-12-07T05:57:36;11.70;53.80
71237;DHT22;58984;51.960;5.582;2022-12-07T06:00:03;11.60;53.70
71237;DHT22;58984;51.960;5.582;2022-12-07T06:02:30;11.70;53.90
71237;DHT22;58984;51.960;5.582;2022-12-07T06:04:56;11.60;53.70
71237;DHT22;58984;51.960;5.582;2022-12-07T06:07:21;11.70;53.80
71237;DHT22;58984;51.960;5.582;2022-12-07T06:09:47;11.70;53.80
71237;DHT22;58984;51.960;5.582;2022-12-07T06:12:13;11.60;53.70
71237;DHT22;58984;51.960;5.582;2022-12-07T06:14:57;11.60;53.70
71237;DHT22;58984;51.960;5.582;2022-12-07T06:17:23;11.60;53.70
71237;DHT22;58984;51.960;5.582;2022-12-07T06:19:48;11.60;53.70
71237;DHT22;58984;51.960;5.582;2022-12-07T06:22:14;11.60;53.70
71237;DHT22;58984;51.960;5.582;2022-12-07T06:24:41;11.60;53.70
71237;DHT22;58984;51.960;5.582;2022-12-07T06:27:07;11.60;53.70
71237;DHT22;58984;51.960;5.582;2022-12-07T06:29:34;11.60;53.70
71237;DHT22;58984;51.960;5.582;2022-12-07T06:31:59;11.60;53.70
71237;DHT22;58984;51.960;5.582;2022-12-07T06:34:25;11.60;53.70
71237;DHT22;58984;51.960;5.582;2022-12-07T06:36:51;11.60;53.70
71237;DHT22;58984;51.960;5.582;2022-12-07T06:39:20;11.70;53.80
71237;DHT22;58984;51.960;5.582;2022-12-07T06:41:46;11.60;53.70
71237;DHT22;58984;51.960;5.582;2022-12-07T06:44:12;11.60;53.70
71237;DHT22;58984;51.960;5.582;2022-12-07T06:46:38;11.60;53.70
71237;DHT22;58984;51.960;5.582;2022-12-07T06:49:04;11.60;53.60
71237;DHT22;58984;51.960;5.582;2022-12-07T06:51:31;11.60;53.60
71237;DHT22;58984;51.960;5.582;2022-12-07T06:53:56;11.60;53.60
71237;DHT22;58984;51.960;5.582;2022-12-07T06:56:22;11.60;53.60
71237;DHT22;58984;51.960;5.582;2022-12-07T06:58:48;11.60;53.50
71237;DHT22;58984;51.960;5.582;2022-12-07T07:01:16;11.50;53.50
71237;DHT22;58984;51.960;5.582;2022-12-07T07:03:41;11.50;53.40
71237;DHT22;58984;51.960;5.582;2022-12-07T07:06:08;11.50;53.40
71237;DHT22;58984;51.960;5.582;2022-12-07T07:08:37;11.50;53.40
71237;DHT22;58984;51.960;5.582;2022-12-07T07:11:03;11.50;53.40
71237;DHT22;58984;51.960;5.582;2022-12-07T07:13:29;11.50;53.40
71237;DHT22;58984;51.960;5.582;2022-12-07T07:15:55;11.50;53.50
71237;DHT22;58984;51.960;5.582;2022-12-07T07:18:21;11.50;53.50
71237;DHT22;58984;51.960;5.582;2022-12-07T07:20:47;11.50;53.50
71237;DHT22;58984;51.960;5.582;2022-12-07T07:23:12;11.50;53.50
71237;DHT22;58984;51.960;5.582;2022-12-07T07:25:38;11.50;53.50
71237;DHT22;58984;51.960;5.582;2022-12-07T07:28:04;11.50;53.50
71237;DHT22;58984;51.960;5.582;2022-12-07T07:30:29;11.50;53.50
71237;DHT22;58984;51.960;5.582;2022-12-07T07:32:59;11.50;53.50
71237;DHT22;58984;51.960;5.582;2022-12-07T07:35:26;11.40;53.40
71237;DHT22;58984;51.960;5.582;2022-12-07T07:37:51;11.50;53.50
71237;DHT22;58984;51.960;5.582;2022-12-07T07:40:17;11.40;53.30
71237;DHT22;58984;51.960;5.582;2022-12-07T07:42:43;11.40;53.40
71237;DHT22;58984;51.960;5.582;2022-12-07T07:45:09;11.50;53.40
71237;DHT22;58984;51.960;5.582;2022-12-07T07:47:35;11.40;53.30
71237;DHT22;58984;51.960;5.582;2022-12-07T07:50:01;11.40;53.30
71237;DHT22;58984;51.960;5.582;2022-12-07T07:52:26;11.40;53.30
71237;DHT22;58984;51.960;5.582;2022-12-07T07:54:52;11.50;53.30
71237;DHT22;58984;51.960;5.582;2022-12-07T07:57:18;11.40;53.30
71237;DHT22;58984;51.960;5.582;2022-12-07T07:59:44;11.40;53.40
71237;DHT22;58984;51.960;5.582;2022-12-07T08:02:14;11.40;53.30
71237;DHT22;58984;51.960;5.582;2022-12-07T08:04:40;11.40;53.30
71237;DHT22;58984;51.960;5.582;2022-12-07T08:07:06;11.40;53.30
71237;DHT22;58984;51.960;5.582;2022-12-07T08:09:31;11.40;53.30
71237;DHT22;58984;51.960;5.582;2022-12-07T08:11:57;11.40;53.30
71237;DHT22;58984;51.960;5.582;2022-12-07T08:14:24;11.40;53.30
71237;DHT22;58984;51.960;5.582;2022-12-07T08:16:49;11.30;53.20
71237;DHT22;58984;51.960;5.582;2022-12-07T08:19:15;11.40;53.30
71237;DHT22;58984;51.960;5.582;2022-12-07T08:21:41;11.40;53.30
71237;DHT22;58984;51.960;5.582;2022-12-07T08:24:06;11.30;53.50
71237;DHT22;58984;51.960;5.582;2022-12-07T08:26:32;11.30;53.50
71237;DHT22;58984;51.960;5.582;2022-12-07T08:28:57;11.30;53.50
71237;DHT22;58984;51.960;5.582;2022-12-07T08:31:23;11.30;53.50
71237;DHT22;58984;51.960;5.582;2022-12-07T08:33:48;11.30;53.50
71237;DHT22;58984;51.960;5.582;2022-12-07T08:36:14;11.30;53.50
71237;DHT22;58984;51.960;5.582;2022-12-07T08:38:41;11.40;53.60
71237;DHT22;58984;51.960;5.582;2022-12-07T08:41:07;11.40;53.60
71237;DHT22;58984;51.960;5.582;2022-12-07T08:43:34;11.30;53.50
71237;DHT22;58984;51.960;5.582;2022-12-07T08:46:22;11.30;53.60
71237;DHT22;58984;51.960;5.582;2022-12-07T08:48:53;11.30;53.60
71237;DHT22;58984;51.960;5.582;2022-12-07T08:51:21;11.30;53.60
71237;DHT22;58984;51.960;5.582;2022-12-07T08:53:49;11.30;53.70
71237;DHT22;58984;51.960;5.582;2022-12-07T08:56:15;11.30;53.20
71237;DHT22;58984;51.960;5.582;2022-12-07T08:58:40;11.30;53.70
71237;DHT22;58984;51.960;5.582;2022-12-07T09:01:06;11.30;53.70
71237;DHT22;58984;51.960;5.582;2022-12-07T09:03:32;11.30;53.80
71237;DHT22;58984;51.960;5.582;2022-12-07T09:05:58;11.40;53.90
71237;DHT22;58984;51.960;5.582;2022-12-07T09:08:39;11.40;54.00
71237;DHT22;58984;51.960;5.582;2022-12-07T09:11:05;11.40;54.00
71237;DHT22;58984;51.960;5.582;2022-12-07T09:13:30;11.40;54.00
71237;DHT22;58984;51.960;5.582;2022-12-07T09:15:56;11.40;54.10
71237;DHT22;58984;51.960;5.582;2022-12-07T09:18:22;11.40;54.10
71237;DHT22;58984;51.960;5.582;2022-12-07T09:20:49;11.40;54.20
71237;DHT22;58984;51.960;5.582;2022-12-07T09:23:15;11.40;54.20
71237;DHT22;58984;51.960;5.582;2022-12-07T09:25:40;11.50;54.30
71237;DHT22;58984;51.960;5.582;2022-12-07T09:28:06;11.40;54.30
71237;DHT22;58984;51.960;5.582;2022-12-07T09:30:31;11.40;54.30
71237;DHT22;58984;51.960;5.582;2022-12-07T09:32:57;11.50;54.40
71237;DHT22;58984;51.960;5.582;2022-12-07T09:35:25;11.50;54.40
71237;DHT22;58984;51.960;5.582;2022-12-07T09:37:51;11.50;54.40
71237;DHT22;58984;51.960;5.582;2022-12-07T09:40:19;11.50;54.80
71237;DHT22;58984;51.960;5.582;2022-12-07T09:42:49;11.50;54.40
71237;DHT22;58984;51.960;5.582;2022-12-07T09:45:25;11.50;54.40
71237;DHT22;58984;51.960;5.582;2022-12-07T09:47:52;11.50;54.40
71237;DHT22;58984;51.960;5.582;2022-12-07T09:50:23;11.50;54.40
71237;DHT22;58984;51.960;5.582;2022-12-07T09:52:51;11.50;54.50
71237;DHT22;58984;51.960;5.582;2022-12-07T09:55:27;11.50;54.50
71237;DHT22;58984;51.960;5.582;2022-12-07T09:57:53;11.50;54.60
71237;DHT22;58984;51.960;5.582;2022-12-07T10:00:22;11.60;54.70
71237;DHT22;58984;51.960;5.582;2022-12-07T10:03:01;11.60;54.80
71237;DHT22;58984;51.960;5.582;2022-12-07T10:05:44;11.60;54.80
71237;DHT22;58984;51.960;5.582;2022-12-07T10:08:13;11.60;54.80
71237;DHT22;58984;51.960;5.582;2022-12-07T10:10:41;11.60;54.80
71237;DHT22;58984;51.960;5.582;2022-12-07T10:13:14;11.70;55.00
71237;DHT22;58984;51.960;5.582;2022-12-07T10:18:40;11.70;55.10
71237;DHT22;58984;51.960;5.582;2022-12-07T10:21:15;11.70;55.10
71237;DHT22;58984;51.960;5.582;2022-12-07T10:24:03;11.80;55.10
71237;DHT22;58984;51.960;5.582;2022-12-07T10:26:36;11.80;55.20
71237;DHT22;58984;51.960;5.582;2022-12-07T10:34:33;11.90;55.30
71237;DHT22;58984;51.960;5.582;2022-12-07T10:39:51;11.90;55.30
71237;DHT22;58984;51.960;5.582;2022-12-07T10:42:27;11.90;55.30
71237;DHT22;58984;51.960;5.582;2022-12-07T10:45:13;12.00;55.40
71237;DHT22;58984;51.960;5.582;2022-12-07T10:48:02;11.90;55.30
71237;DHT22;58984;51.960;5.582;2022-12-07T11:04:19;12.10;55.50
71237;DHT22;58984;51.960;5.582;2022-12-07T11:09:49;12.10;55.50
71237;DHT22;58984;51.960;5.582;2022-12-07T11:15:14;12.20;55.60
71237;DHT22;58984;51.960;5.582;2022-12-07T11:17:50;12.20;55.50
71237;DHT22;58984;51.960;5.582;2022-12-07T11:23:15;12.20;55.60
71237;DHT22;58984;51.960;5.582;2022-12-07T11:25:59;12.40;56.30
71237;DHT22;58984;51.960;5.582;2022-12-07T11:32:19;12.60;55.90
71237;DHT22;58984;51.960;5.582;2022-12-07T11:36:56;12.70;55.60
71237;DHT22;58984;51.960;5.582;2022-12-07T11:41:49;12.70;55.50
71237;DHT22;58984;51.960;5.582;2022-12-07T11:44:30;12.80;55.60
71237;DHT22;58984;51.960;5.582;2022-12-07T11:47:10;12.70;55.40
71237;DHT22;58984;51.960;5.582;2022-12-07T11:49:44;12.80;55.50
71237;DHT22;58984;51.960;5.582;2022-12-07T11:52:25;12.80;55.50
71237;DHT22;58984;51.960;5.582;2022-12-07T11:54:53;12.80;55.50
71237;DHT22;58984;51.960;5.582;2022-12-07T11:57:37;12.90;55.50
71237;DHT22;58984;51.960;5.582;2022-12-07T12:00:14;12.80;55.50
71237;DHT22;58984;51.960;5.582;2022-12-07T12:05:24;12.80;55.50
71237;DHT22;58984;51.960;5.582;2022-12-07T12:16:56;12.80;56.50
71237;DHT22;58984;51.960;5.582;2022-12-07T12:22:19;12.90;55.90
71237;DHT22;58984;51.960;5.582;2022-12-07T12:24:51;13.00;56.10
71237;DHT22;58984;51.960;5.582;2022-12-07T12:27:21;13.10;56.30
71237;DHT22;58984;51.960;5.582;2022-12-07T12:29:54;13.40;56.30
71237;DHT22;58984;51.960;5.582;2022-12-07T12:32:23;13.50;56.60
71237;DHT22;58984;51.960;5.582;2022-12-07T12:35:00;13.70;56.40
71237;DHT22;58984;51.960;5.582;2022-12-07T12:42:44;13.80;55.80
71237;DHT22;58984;51.960;5.582;2022-12-07T12:45:21;13.90;55.60
71237;DHT22;58984;51.960;5.582;2022-12-07T12:47:54;14.00;55.50
71237;DHT22;58984;51.960;5.582;2022-12-07T12:50:21;14.10;55.40
71237;DHT22;58984;51.960;5.582;2022-12-07T12:52:59;14.20;55.50
71237;DHT22;58984;51.960;5.582;2022-12-07T13:00:46;14.30;55.20
71237;DHT22;58984;51.960;5.582;2022-12-07T13:03:26;14.50;55.40
71237;DHT22;58984;51.960;5.582;2022-12-07T13:08:50;14.60;55.50
71237;DHT22;58984;51.960;5.582;2022-12-07T13:11:18;14.70;55.40
71237;DHT22;58984;51.960;5.582;2022-12-07T13:13:45;14.70;55.20
71237;DHT22;58984;51.960;5.582;2022-12-07T13:18:37;14.90;55.10
71237;DHT22;58984;51.960;5.582;2022-12-07T13:26:27;14.80;54.30
71237;DHT22;58984;51.960;5.582;2022-12-07T13:31:57;14.80;54.30
71237;DHT22;58984;51.960;5.582;2022-12-07T13:36:52;14.70;53.50
71237;DHT22;58984;51.960;5.582;2022-12-07T13:39:20;14.70;53.60
71237;DHT22;58984;51.960;5.582;2022-12-07T13:41:58;14.70;53.60
71237;DHT22;58984;51.960;5.582;2022-12-07T13:44:27;14.70;53.70
71237;DHT22;58984;51.960;5.582;2022-12-07T13:49:30;14.70;53.90
71237;DHT22;58984;51.960;5.582;2022-12-07T13:52:18;14.70;54.00
71237;DHT22;58984;51.960;5.582;2022-12-07T13:57:20;14.60;54.10
71237;DHT22;58984;51.960;5.582;2022-12-07T13:59:46;14.70;54.20
71237;DHT22;58984;51.960;5.582;2022-12-07T14:02:21;14.60;54.10
71237;DHT22;58984;51.960;5.582;2022-12-07T14:04:50;14.60;54.10
71237;DHT22;58984;51.960;5.582;2022-12-07T14:07:25;14.60;54.10
71237;DHT22;58984;51.960;5.582;2022-12-07T14:10:00;14.50;54.00
71237;DHT22;58984;51.960;5.582;2022-12-07T14:12:27;14.50;54.00
71237;DHT22;58984;51.960;5.582;2022-12-07T14:15:03;14.50;54.10
71237;DHT22;58984;51.960;5.582;2022-12-07T14:17:29;14.50;54.10
71237;DHT22;58984;51.960;5.582;2022-12-07T14:20:01;14.40;54.00
71237;DHT22;58984;51.960;5.582;2022-12-07T14:22:35;14.50;54.10
71237;DHT22;58984;51.960;5.582;2022-12-07T14:25:20;14.40;54.10
71237;DHT22;58984;51.960;5.582;2022-12-07T14:27:58;14.40;54.20
71237;DHT22;58984;51.960;5.582;2022-12-07T14:30:28;14.30;54.00
71237;DHT22;58984;51.960;5.582;2022-12-07T14:33:07;14.40;54.20
71237;DHT22;58984;51.960;5.582;2022-12-07T14:35:33;14.30;54.10
71237;DHT22;58984;51.960;5.582;2022-12-07T14:37:59;14.30;54.10
71237;DHT22;58984;51.960;5.582;2022-12-07T14:40:28;14.30;54.10
71237;DHT22;58984;51.960;5.582;2022-12-07T14:42:59;14.30;54.00
71237;DHT22;58984;51.960;5.582;2022-12-07T14:45:26;14.20;53.80
71237;DHT22;58984;51.960;5.582;2022-12-07T14:47:51;14.20;54.40
71237;DHT22;58984;51.960;5.582;2022-12-07T14:50:19;14.20;53.70
71237;DHT22;58984;51.960;5.582;2022-12-07T14:52:49;14.20;54.30
71237;DHT22;58984;51.960;5.582;2022-12-07T14:55:24;14.10;53.40
71237;DHT22;58984;51.960;5.582;2022-12-07T14:57:51;14.10;53.40
71237;DHT22;58984;51.960;5.582;2022-12-07T15:00:17;14.10;53.30
71237;DHT22;58984;51.960;5.582;2022-12-07T15:02:45;14.10;53.30
71237;DHT22;58984;51.960;5.582;2022-12-07T15:05:11;14.10;53.20
71237;DHT22;58984;51.960;5.582;2022-12-07T15:07:37;14.00;53.10
71237;DHT22;58984;51.960;5.582;2022-12-07T15:10:03;14.00;53.20
71237;DHT22;58984;51.960;5.582;2022-12-07T15:12:28;14.00;53.30
71237;DHT22;58984;51.960;5.582;2022-12-07T15:14:54;14.00;53.20
71237;DHT22;58984;51.960;5.582;2022-12-07T15:17:19;14.00;53.30
71237;DHT22;58984;51.960;5.582;2022-12-07T15:19:45;13.90;53.10
71237;DHT22;58984;51.960;5.582;2022-12-07T15:22:10;13.90;53.10
71237;DHT22;58984;51.960;5.582;2022-12-07T15:24:36;13.90;53.00
71237;DHT22;58984;51.960;5.582;2022-12-07T15:27:02;13.90;53.00
71237;DHT22;58984;51.960;5.582;2022-12-07T15:29:29;13.90;53.00
71237;DHT22;58984;51.960;5.582;2022-12-07T15:31:54;13.80;53.10
71237;DHT22;58984;51.960;5.582;2022-12-07T15:34:20;13.80;53.00
71237;DHT22;58984;51.960;5.582;2022-12-07T15:36:45;13.80;53.10
71237;DHT22;58984;51.960;5.582;2022-12-07T15:39:11;13.80;53.10
71237;DHT22;58984;51.960;5.582;2022-12-07T15:41:37;13.80;53.10
71237;DHT22;58984;51.960;5.582;2022-12-07T15:44:03;13.70;53.00
71237;DHT22;58984;51.960;5.582;2022-12-07T15:46:47;13.70;53.00
71237;DHT22;58984;51.960;5.582;2022-12-07T15:49:17;13.70;52.80
71237;DHT22;58984;51.960;5.582;2022-12-07T15:51:44;13.60;52.80
71237;DHT22;58984;51.960;5.582;2022-12-07T15:54:20;13.60;52.70
71237;DHT22;58984;51.960;5.582;2022-12-07T15:56:46;13.60;52.80
71237;DHT22;58984;51.960;5.582;2022-12-07T15:59:12;13.60;52.70
71237;DHT22;58984;51.960;5.582;2022-12-07T16:01:37;13.60;52.70
71237;DHT22;58984;51.960;5.582;2022-12-07T16:04:03;13.60;52.80
71237;DHT22;58984;51.960;5.582;2022-12-07T16:06:29;13.60;52.90
71237;DHT22;58984;51.960;5.582;2022-12-07T16:08:54;13.60;52.80
71237;DHT22;58984;51.960;5.582;2022-12-07T16:11:20;13.50;52.80
71237;DHT22;58984;51.960;5.582;2022-12-07T16:13:46;13.50;52.80
71237;DHT22;58984;51.960;5.582;2022-12-07T16:16:14;13.50;52.80
71237;DHT22;58984;51.960;5.582;2022-12-07T16:18:42;13.50;52.70
71237;DHT22;58984;51.960;5.582;2022-12-07T16:21:08;13.40;52.60
71237;DHT22;58984;51.960;5.582;2022-12-07T16:23:34;13.40;52.60
71237;DHT22;58984;51.960;5.582;2022-12-07T16:26:08;13.40;52.70
71237;DHT22;58984;51.960;5.582;2022-12-07T16:28:34;13.30;52.50
71237;DHT22;58984;51.960;5.582;2022-12-07T16:31:14;13.40;52.60
71237;DHT22;58984;51.960;5.582;2022-12-07T16:33:40;13.40;52.60
71237;DHT22;58984;51.960;5.582;2022-12-07T16:36:08;13.40;52.60
71237;DHT22;58984;51.960;5.582;2022-12-07T16:38:35;13.30;52.50
71237;DHT22;58984;51.960;5.582;2022-12-07T16:41:01;13.30;52.50
71237;DHT22;58984;51.960;5.582;2022-12-07T16:43:26;13.30;52.50
71237;DHT22;58984;51.960;5.582;2022-12-07T16:45:52;13.30;52.50
71237;DHT22;58984;51.960;5.582;2022-12-07T16:48:18;13.30;52.60
71237;DHT22;58984;51.960;5.582;2022-12-07T16:50:44;13.30;52.60
71237;DHT22;58984;51.960;5.582;2022-12-07T16:53:11;13.30;52.50
71237;DHT22;58984;51.960;5.582;2022-12-07T16:55:42;13.20;52.50
71237;DHT22;58984;51.960;5.582;2022-12-07T16:58:07;13.20;52.50
71237;DHT22;58984;51.960;5.582;2022-12-07T17:00:37;13.20;52.50
71237;DHT22;58984;51.960;5.582;2022-12-07T17:03:06;13.10;52.50
71237;DHT22;58984;51.960;5.582;2022-12-07T17:05:32;13.30;52.70
71237;DHT22;58984;51.960;5.582;2022-12-07T17:07:58;13.20;52.40
71237;DHT22;58984;51.960;5.582;2022-12-07T17:10:25;13.20;52.50
71237;DHT22;58984;51.960;5.582;2022-12-07T17:12:51;13.10;52.50
71237;DHT22;58984;51.960;5.582;2022-12-07T17:15:17;13.10;52.50
71237;DHT22;58984;51.960;5.582;2022-12-07T17:17:47;13.10;52.70
71237;DHT22;58984;51.960;5.582;2022-12-07T17:20:16;13.00;52.60
71237;DHT22;58984;51.960;5.582;2022-12-07T17:22:42;13.10;52.80
71237;DHT22;58984;51.960;5.582;2022-12-07T17:25:09;13.00;52.70
71237;DHT22;58984;51.960;5.582;2022-12-07T17:27:35;13.10;52.80
71237;DHT22;58984;51.960;5.582;2022-12-07T17:30:02;13.00;53.40